createdAt,value
2022-12-28T00:00:55.919Z,0
2022-12-28T00:01:59.875Z,0
2022-12-28T00:03:05.014Z,0
2022-12-28T00:04:09.693Z,0
2022-12-28T00:05:14.191Z,0
2022-12-28T00:06:17.890Z,0
2022-12-28T00:07:21.227Z,0
2022-12-28T00:08:24.614Z,0
2022-12-28T00:09:28.589Z,0
2022-12-28T00:11:06.966Z,0
2022-12-28T00:12:34.246Z,0
2022-12-28T00:13:38.132Z,0
2022-12-28T00:14:41.893Z,0
2022-12-28T00:15:48.952Z,0
2022-12-28T00:16:52.333Z,0
2022-12-28T00:17:55.402Z,0
2022-12-28T00:18:59.096Z,0
2022-12-28T00:20:02.206Z,0
2022-12-28T00:21:05.791Z,0
2022-12-28T00:22:09.285Z,0
2022-12-28T00:23:12.427Z,0
2022-12-28T00:24:14.967Z,0
2022-12-28T00:25:17.715Z,0
2022-12-28T00:26:21.409Z,0
2022-12-28T00:27:24.774Z,0
2022-12-28T00:28:26.931Z,0
2022-12-28T00:29:29.953Z,0
2022-12-28T00:30:33.652Z,0
2022-12-28T00:31:37.121Z,0
2022-12-28T00:32:40.296Z,0
2022-12-28T00:33:43.304Z,0
2022-12-28T00:34:46.459Z,0
2022-12-28T00:35:49.261Z,0
2022-12-28T00:37:08.084Z,0
2022-12-28T00:38:15.377Z,0
2022-12-28T00:39:18.499Z,0
2022-12-28T00:40:24.078Z,0
2022-12-28T00:41:26.595Z,0
2022-12-28T00:42:29.311Z,0
2022-12-28T00:43:32.436Z,0
2022-12-28T00:44:36.110Z,0
2022-12-28T00:45:39.245Z,0
2022-12-28T00:46:42.350Z,0
2022-12-28T00:47:45.634Z,0
2022-12-28T00:48:47.802Z,0
2022-12-28T00:49:51.185Z,0
2022-12-28T00:50:53.931Z,0
2022-12-28T00:51:57.686Z,0
2022-12-28T00:53:00.781Z,0
2022-12-28T00:54:04.193Z,0
2022-12-28T00:55:06.940Z,0
2022-12-28T00:56:10.013Z,0
2022-12-28T00:57:13.324Z,0
2022-12-28T00:58:16.307Z,0
2022-12-28T00:59:20.023Z,0
2022-12-28T01:00:22.563Z,0
2022-12-28T01:01:26.021Z,0
2022-12-28T01:02:29.794Z,0
2022-12-28T01:03:33.265Z,0
2022-12-28T01:04:36.616Z,0
2022-12-28T01:05:39.708Z,0
2022-12-28T01:06:43.089Z,0
2022-12-28T01:07:46.961Z,0
2022-12-28T01:08:49.975Z,0
2022-12-28T01:09:52.984Z,0
2022-12-28T01:10:55.800Z,0
2022-12-28T01:11:58.866Z,0
2022-12-28T01:13:02.056Z,0
2022-12-28T01:14:05.172Z,0
2022-12-28T01:15:07.895Z,0
2022-12-28T01:16:11.295Z,0
2022-12-28T01:17:14.585Z,0
2022-12-28T01:18:17.621Z,0
2022-12-28T01:19:20.649Z,0
2022-12-28T01:20:24.013Z,0
2022-12-28T01:21:27.382Z,0
2022-12-28T01:22:30.883Z,0
2022-12-28T01:23:34.371Z,0
2022-12-28T01:24:37.135Z,0
2022-12-28T01:25:39.562Z,0
2022-12-28T01:26:42.599Z,0
2022-12-28T01:27:45.047Z,0
2022-12-28T01:28:47.840Z,0
2022-12-28T01:29:50.727Z,0
2022-12-28T01:30:53.427Z,0
2022-12-28T01:31:56.930Z,0
2022-12-28T01:33:00.320Z,0
2022-12-28T01:34:03.333Z,0
2022-12-28T01:35:08.699Z,0
2022-12-28T01:36:11.872Z,0
2022-12-28T01:37:15.250Z,0
2022-12-28T01:38:18.402Z,0
2022-12-28T01:39:21.958Z,0
2022-12-28T01:40:24.818Z,0
2022-12-28T01:41:27.820Z,0
2022-12-28T01:42:31.148Z,0
2022-12-28T01:43:33.853Z,0
2022-12-28T01:44:37.318Z,0
2022-12-28T01:45:40.448Z,0
2022-12-28T01:46:44.098Z,0
2022-12-28T01:47:47.226Z,0
2022-12-28T01:48:50.707Z,0
2022-12-28T01:49:54.354Z,0
2022-12-28T01:50:57.349Z,0
2022-12-28T01:52:00.341Z,0
2022-12-28T01:53:03.805Z,0
2022-12-28T01:54:06.689Z,0
2022-12-28T01:55:10.491Z,0
2022-12-28T01:56:13.949Z,0
2022-12-28T01:57:16.922Z,0
2022-12-28T01:58:19.351Z,0
2022-12-28T01:59:22.465Z,0
2022-12-28T02:00:25.913Z,0
2022-12-28T02:01:28.496Z,0
2022-12-28T02:02:32.157Z,0
2022-12-28T02:03:36.273Z,0
2022-12-28T02:04:39.654Z,0
2022-12-28T02:05:42.948Z,0
2022-12-28T02:06:45.691Z,0
2022-12-28T02:07:48.443Z,0
2022-12-28T02:08:52.124Z,0
2022-12-28T02:10:41.969Z,0
2022-12-28T02:11:49.463Z,0
2022-12-28T02:12:52.683Z,0
2022-12-28T02:13:54.730Z,0
2022-12-28T02:14:58.060Z,0
2022-12-28T02:16:00.789Z,0
2022-12-28T02:17:03.599Z,0
2022-12-28T02:18:06.766Z,0
2022-12-28T02:19:09.832Z,0
2022-12-28T02:20:13.234Z,0
2022-12-28T02:21:16.038Z,0
2022-12-28T02:22:19.394Z,0
2022-12-28T02:23:22.130Z,0
2022-12-28T02:24:25.259Z,0
2022-12-28T02:25:28.438Z,0
2022-12-28T02:26:35.998Z,0
2022-12-28T02:27:39.870Z,0
2022-12-28T02:28:43.231Z,0
2022-12-28T02:29:46.225Z,0
2022-12-28T02:30:48.849Z,0
2022-12-28T02:31:52.786Z,0
2022-12-28T02:32:55.966Z,0
2022-12-28T02:33:58.417Z,0
2022-12-28T02:35:01.414Z,0
2022-12-28T02:36:03.742Z,0
2022-12-28T02:37:07.127Z,0
2022-12-28T02:38:09.635Z,0
2022-12-28T02:39:12.910Z,0
2022-12-28T02:40:17.449Z,0
2022-12-28T02:41:21.268Z,0
2022-12-28T02:42:24.701Z,0
2022-12-28T02:43:28.300Z,0
2022-12-28T02:44:31.549Z,0
2022-12-28T02:45:34.532Z,0
2022-12-28T02:46:37.511Z,0
2022-12-28T02:47:40.963Z,0
2022-12-28T02:48:44.037Z,0
2022-12-28T02:49:46.772Z,0
2022-12-28T02:50:49.830Z,0
2022-12-28T02:51:53.850Z,0
2022-12-28T02:52:57.128Z,0
2022-12-28T02:53:59.937Z,0
2022-12-28T02:55:03.974Z,0
2022-12-28T02:56:07.739Z,0
2022-12-28T02:57:10.937Z,0
2022-12-28T02:58:13.656Z,0
2022-12-28T02:59:17.284Z,0
2022-12-28T03:00:20.633Z,0
2022-12-28T03:01:23.802Z,0
2022-12-28T03:02:27.294Z,0
2022-12-28T03:03:31.669Z,0
2022-12-28T03:04:35.130Z,0
2022-12-28T03:05:38.204Z,0
2022-12-28T03:06:41.885Z,0
2022-12-28T03:07:44.498Z,0
2022-12-28T03:08:47.697Z,0
2022-12-28T03:09:51.317Z,0
2022-12-28T03:10:54.676Z,0
2022-12-28T03:11:58.056Z,0
2022-12-28T03:13:01.223Z,0
2022-12-28T03:14:04.364Z,0
2022-12-28T03:15:08.219Z,0
2022-12-28T03:16:11.306Z,0
2022-12-28T03:17:14.872Z,0
2022-12-28T03:18:18.226Z,0
2022-12-28T03:19:20.923Z,0
2022-12-28T03:20:24.626Z,0
2022-12-28T03:21:27.725Z,0
2022-12-28T03:22:31.080Z,0
2022-12-28T03:23:34.550Z,0
2022-12-28T03:24:37.985Z,0
2022-12-28T03:25:41.295Z,0
2022-12-28T03:26:44.006Z,0
2022-12-28T03:27:47.216Z,0
2022-12-28T03:28:50.352Z,0
2022-12-28T03:29:53.141Z,0
2022-12-28T03:30:57.277Z,0
2022-12-28T03:32:00.487Z,0
2022-12-28T03:33:03.231Z,0
2022-12-28T03:34:05.755Z,0
2022-12-28T03:35:10.187Z,0
2022-12-28T03:36:13.190Z,0
2022-12-28T03:37:18.466Z,0
2022-12-28T03:38:21.446Z,0
2022-12-28T03:39:24.011Z,0
2022-12-28T03:40:27.180Z,0
2022-12-28T03:41:29.983Z,0
2022-12-28T03:42:32.805Z,0
2022-12-28T03:43:36.220Z,0
2022-12-28T03:44:38.439Z,0
2022-12-28T03:45:44.543Z,0
2022-12-28T03:46:50.983Z,0
2022-12-28T03:47:54.340Z,0
2022-12-28T03:48:57.961Z,0
2022-12-28T03:50:01.417Z,0
2022-12-28T03:51:04.720Z,0
2022-12-28T03:52:07.167Z,0
2022-12-28T03:53:10.239Z,0
2022-12-28T03:54:13.383Z,0
2022-12-28T03:55:16.578Z,0
2022-12-28T03:56:19.421Z,0
2022-12-28T03:57:22.500Z,0
2022-12-28T03:58:25.892Z,0
2022-12-28T03:59:29.945Z,0
2022-12-28T04:00:32.677Z,0
2022-12-28T04:01:35.934Z,0
2022-12-28T04:02:40.597Z,0
2022-12-28T04:03:44.638Z,0
2022-12-28T04:04:47.709Z,0
2022-12-28T04:05:51.164Z,0
2022-12-28T04:06:53.599Z,0
2022-12-28T04:07:56.167Z,0
2022-12-28T04:08:59.298Z,0
2022-12-28T04:10:02.485Z,0
2022-12-28T04:11:05.985Z,0
2022-12-28T04:12:09.161Z,0
2022-12-28T04:13:12.813Z,0
2022-12-28T04:14:17.309Z,0
2022-12-28T04:15:21.061Z,0
2022-12-28T04:16:24.196Z,0
2022-12-28T04:17:27.157Z,0
2022-12-28T04:18:30.662Z,0
2022-12-28T04:19:33.385Z,0
2022-12-28T04:20:36.274Z,0
2022-12-28T04:21:39.815Z,0
2022-12-28T04:22:43.539Z,0
2022-12-28T04:23:47.259Z,0
2022-12-28T04:24:50.038Z,0
2022-12-28T04:25:53.399Z,0
2022-12-28T04:26:56.761Z,0
2022-12-28T04:27:59.253Z,0
2022-12-28T04:29:02.747Z,0
2022-12-28T04:30:06.113Z,0
2022-12-28T04:31:09.235Z,0
2022-12-28T04:32:12.942Z,0
2022-12-28T04:33:16.028Z,0
2022-12-28T04:34:19.860Z,0
2022-12-28T04:35:23.605Z,0
2022-12-28T04:36:26.133Z,0
2022-12-28T04:37:29.839Z,0
2022-12-28T04:38:33.489Z,0
2022-12-28T04:39:54.464Z,0
2022-12-28T04:41:00.126Z,0
2022-12-28T04:42:03.314Z,0
2022-12-28T04:43:06.369Z,0
2022-12-28T04:44:09.407Z,0
2022-12-28T04:45:14.660Z,0
2022-12-28T04:46:25.663Z,0
2022-12-28T04:47:29.289Z,0
2022-12-28T04:48:31.907Z,0
2022-12-28T04:49:35.683Z,0
2022-12-28T04:50:39.099Z,0
2022-12-28T04:51:42.093Z,0
2022-12-28T04:52:44.234Z,0
2022-12-28T04:53:47.517Z,0
2022-12-28T04:54:50.310Z,0
2022-12-28T04:55:53.822Z,0
2022-12-28T04:56:56.877Z,0
2022-12-28T04:58:00.246Z,0
2022-12-28T04:59:03.526Z,0
2022-12-28T05:00:06.707Z,0
2022-12-28T05:01:09.497Z,0
2022-12-28T05:02:13.992Z,0
2022-12-28T05:03:17.453Z,0
2022-12-28T05:04:20.568Z,0
2022-12-28T05:05:24.488Z,0
2022-12-28T05:06:27.954Z,0
2022-12-28T05:07:31.168Z,0
2022-12-28T05:08:34.552Z,0
2022-12-28T05:09:37.341Z,0
2022-12-28T05:10:40.225Z,0
2022-12-28T05:11:43.846Z,0
2022-12-28T05:12:46.905Z,0
2022-12-28T05:13:50.248Z,0
2022-12-28T05:14:53.545Z,0
2022-12-28T05:15:56.312Z,0
2022-12-28T05:16:59.542Z,0
2022-12-28T05:18:03.405Z,0
2022-12-28T05:19:06.149Z,0
2022-12-28T05:20:08.608Z,0
2022-12-28T05:21:12.144Z,0
2022-12-28T05:22:15.432Z,0
2022-12-28T05:23:17.777Z,0
2022-12-28T05:24:20.872Z,0
2022-12-28T05:25:23.946Z,0
2022-12-28T05:26:26.763Z,0
2022-12-28T05:27:30.309Z,0
2022-12-28T05:28:33.369Z,0
2022-12-28T05:29:36.100Z,0
2022-12-28T05:30:38.881Z,0
2022-12-28T05:31:41.693Z,0
2022-12-28T05:32:44.963Z,0
2022-12-28T05:33:48.690Z,0
2022-12-28T05:34:52.154Z,0
2022-12-28T05:35:54.665Z,0
2022-12-28T05:36:58.756Z,0
2022-12-28T05:38:02.587Z,0
2022-12-28T05:39:05.180Z,0
2022-12-28T05:40:07.333Z,0
2022-12-28T05:41:10.323Z,0
2022-12-28T05:42:13.046Z,0
2022-12-28T05:43:16.184Z,0
2022-12-28T05:44:19.499Z,0
2022-12-28T05:45:22.656Z,0
2022-12-28T05:46:26.104Z,0
2022-12-28T05:47:29.991Z,0
2022-12-28T05:48:33.399Z,0
2022-12-28T05:49:37.077Z,0
2022-12-28T05:50:40.614Z,0
2022-12-28T05:51:44.355Z,0
2022-12-28T05:52:48.275Z,0
2022-12-28T05:53:51.005Z,0
2022-12-28T05:54:54.112Z,0
2022-12-28T05:55:57.454Z,0
2022-12-28T05:57:00.176Z,0
2022-12-28T05:58:02.978Z,0
2022-12-28T05:59:06.665Z,0
2022-12-28T06:00:10.431Z,0
2022-12-28T06:01:13.530Z,0
2022-12-28T06:02:20.315Z,0
2022-12-28T06:03:29.225Z,0
2022-12-28T06:04:32.869Z,0
2022-12-28T06:05:36.697Z,0
2022-12-28T06:06:39.756Z,0
2022-12-28T06:07:42.219Z,0
2022-12-28T06:08:45.807Z,0
2022-12-28T06:09:49.179Z,0
2022-12-28T06:10:52.238Z,0
2022-12-28T06:11:55.118Z,0
2022-12-28T06:12:58.887Z,0
2022-12-28T06:14:02.064Z,0
2022-12-28T06:15:04.905Z,0
2022-12-28T06:16:07.403Z,0
2022-12-28T06:17:11.532Z,0
2022-12-28T06:18:13.766Z,0
2022-12-28T06:19:16.474Z,0
2022-12-28T06:20:19.505Z,0
2022-12-28T06:21:23.156Z,0
2022-12-28T06:22:26.876Z,0
2022-12-28T06:23:30.122Z,0
2022-12-28T06:24:33.892Z,0
2022-12-28T06:25:36.947Z,0
2022-12-28T06:26:40.378Z,0
2022-12-28T06:27:43.542Z,0
2022-12-28T06:28:46.331Z,0
2022-12-28T06:29:50.319Z,0
2022-12-28T06:30:53.405Z,0
2022-12-28T06:31:56.757Z,0
2022-12-28T06:32:59.864Z,0
2022-12-28T06:34:02.917Z,0
2022-12-28T06:35:05.675Z,0
2022-12-28T06:36:08.656Z,0
2022-12-28T06:37:23.023Z,0
2022-12-28T06:38:26.230Z,0
2022-12-28T06:39:29.942Z,0
2022-12-28T06:41:02.770Z,0
2022-12-28T06:42:17.436Z,0
2022-12-28T06:43:20.503Z,0
2022-12-28T06:44:23.603Z,0
2022-12-28T06:45:26.818Z,0
2022-12-28T06:46:30.153Z,0
2022-12-28T06:47:33.297Z,0
2022-12-28T06:48:36.055Z,0
2022-12-28T06:49:39.167Z,0
2022-12-28T06:50:42.616Z,0
2022-12-28T06:51:45.619Z,0
2022-12-28T06:52:48.808Z,0
2022-12-28T06:53:52.074Z,0
2022-12-28T06:54:54.882Z,0
2022-12-28T06:55:58.437Z,0
2022-12-28T06:57:01.813Z,0
2022-12-28T06:58:05.151Z,0
2022-12-28T06:59:07.606Z,0
2022-12-28T07:00:10.755Z,0
2022-12-28T07:01:14.515Z,4
2022-12-28T07:02:18.553Z,0
2022-12-28T07:03:22.852Z,4
2022-12-28T07:04:25.941Z,4
2022-12-28T07:05:29.643Z,4
2022-12-28T07:06:33.299Z,4
2022-12-28T07:07:37.042Z,4
2022-12-28T07:08:40.817Z,4
2022-12-28T07:09:44.103Z,4
2022-12-28T07:10:46.835Z,8
2022-12-28T07:11:50.395Z,8
2022-12-28T07:12:53.124Z,12
2022-12-28T07:13:56.410Z,16
2022-12-28T07:15:00.175Z,16
2022-12-28T07:16:03.152Z,24
2022-12-28T07:17:05.988Z,24
2022-12-28T07:18:09.135Z,20
2022-12-28T07:19:12.262Z,24
2022-12-28T07:20:15.089Z,32
2022-12-28T07:21:18.176Z,40
2022-12-28T07:22:20.942Z,44
2022-12-28T07:23:23.467Z,44
2022-12-28T07:24:26.852Z,56
2022-12-28T07:25:29.849Z,64
2022-12-28T07:26:32.920Z,56
2022-12-28T07:27:36.475Z,56
2022-12-28T07:28:38.921Z,64
2022-12-28T07:29:42.213Z,72
2022-12-28T07:30:45.347Z,84
2022-12-28T07:31:48.551Z,96
2022-12-28T07:32:51.907Z,104
2022-12-28T07:33:54.986Z,128
2022-12-28T07:34:59.005Z,108
2022-12-28T07:36:01.528Z,112
2022-12-28T07:37:04.556Z,124
2022-12-28T07:38:07.343Z,136
2022-12-28T07:39:10.195Z,120
2022-12-28T07:40:13.430Z,112
2022-12-28T07:41:16.252Z,112
2022-12-28T07:42:19.651Z,152
2022-12-28T07:43:23.897Z,148
2022-12-28T07:44:29.651Z,180
2022-12-28T07:45:50.709Z,156
2022-12-28T07:46:53.878Z,236
2022-12-28T07:47:56.035Z,236
2022-12-28T07:48:59.132Z,252
2022-12-28T07:50:02.293Z,256
2022-12-28T07:51:05.122Z,288
2022-12-28T07:52:08.139Z,288
2022-12-28T07:53:11.308Z,424
2022-12-28T07:54:24.970Z,384
2022-12-28T07:55:27.886Z,348
2022-12-28T07:57:33.774Z,224
2022-12-28T07:58:37.920Z,200
2022-12-28T07:59:41.377Z,184
2022-12-28T08:00:44.414Z,168
2022-12-28T08:01:47.501Z,160
2022-12-28T08:02:51.147Z,192
2022-12-28T08:03:53.931Z,220
2022-12-28T08:04:57.657Z,256
2022-12-28T08:06:00.519Z,264
2022-12-28T08:07:03.607Z,240
2022-12-28T08:08:06.703Z,228
2022-12-28T08:09:09.569Z,268
2022-12-28T08:10:12.398Z,268
2022-12-28T08:11:15.887Z,244
2022-12-28T08:12:18.970Z,252
2022-12-28T08:13:21.756Z,252
2022-12-28T08:14:25.510Z,268
2022-12-28T08:15:28.530Z,236
2022-12-28T08:16:31.864Z,284
2022-12-28T08:17:35.260Z,364
2022-12-28T08:18:38.082Z,324
2022-12-28T08:19:41.144Z,372
2022-12-28T08:20:44.201Z,436
2022-12-28T08:21:47.178Z,420
2022-12-28T08:22:50.306Z,540
2022-12-28T08:23:52.743Z,664
2022-12-28T08:24:55.865Z,660
2022-12-28T08:25:59.002Z,848
2022-12-28T08:27:03.098Z,812
2022-12-28T08:28:05.813Z,888
2022-12-28T08:29:09.523Z,940
2022-12-28T08:30:13.637Z,944
2022-12-28T08:31:16.792Z,812
2022-12-28T08:32:20.403Z,804
2022-12-28T08:33:23.495Z,844
2022-12-28T08:34:27.446Z,1036
2022-12-28T08:35:30.608Z,1132
2022-12-28T08:36:34.056Z,908
2022-12-28T08:37:37.880Z,828
2022-12-28T08:38:41.264Z,784
2022-12-28T08:39:45.269Z,612
2022-12-28T08:40:52.760Z,696
2022-12-28T08:42:00.488Z,728
2022-12-28T08:43:03.911Z,744
2022-12-28T08:44:06.998Z,732
2022-12-28T08:45:10.991Z,656
2022-12-28T08:46:14.153Z,860
2022-12-28T08:47:19.131Z,900
2022-12-28T08:48:22.897Z,936
2022-12-28T08:49:26.068Z,832
2022-12-28T08:50:31.714Z,976
2022-12-28T08:51:34.741Z,1176
2022-12-28T08:52:38.357Z,1040
2022-12-28T08:53:42.055Z,1012
2022-12-28T08:54:45.798Z,980
2022-12-28T08:55:48.955Z,880
2022-12-28T08:56:51.965Z,732
2022-12-28T08:57:55.257Z,780
2022-12-28T08:58:58.448Z,768
2022-12-28T09:00:01.597Z,888
2022-12-28T09:01:04.537Z,1076
2022-12-28T09:02:09.848Z,968
2022-12-28T09:03:14.064Z,800
2022-12-28T09:04:18.212Z,776
2022-12-28T09:05:21.926Z,772
2022-12-28T09:06:24.915Z,820
2022-12-28T09:07:28.309Z,868
2022-12-28T09:08:31.654Z,1096
2022-12-28T09:09:35.727Z,1176
2022-12-28T09:10:38.829Z,1260
2022-12-28T09:11:41.444Z,1768
2022-12-28T09:12:45.500Z,1524
2022-12-28T09:13:48.550Z,1188
2022-12-28T09:14:52.271Z,1208
2022-12-28T09:15:55.121Z,1432
2022-12-28T09:16:58.316Z,1444
2022-12-28T09:18:02.515Z,1260
2022-12-28T09:19:05.792Z,1256
2022-12-28T09:20:09.470Z,1596
2022-12-28T09:21:12.230Z,1648
2022-12-28T09:22:15.918Z,1900
2022-12-28T09:23:19.245Z,1640
2022-12-28T09:24:22.361Z,1908
2022-12-28T09:25:25.767Z,1940
2022-12-28T09:26:28.821Z,1956
2022-12-28T09:27:31.879Z,1668
2022-12-28T09:28:34.966Z,1804
2022-12-28T09:29:38.329Z,2076
2022-12-28T09:30:41.709Z,2276
2022-12-28T09:31:45.230Z,2340
2022-12-28T09:32:49.337Z,1916
2022-12-28T09:34:31.998Z,2088
2022-12-28T09:35:41.221Z,2536
2022-12-28T09:36:44.584Z,2416
2022-12-28T09:37:47.678Z,2696
2022-12-28T09:38:50.410Z,2448
2022-12-28T09:39:58.000Z,2380
2022-12-28T09:41:04.553Z,2716
2022-12-28T09:42:07.413Z,2980
2022-12-28T09:43:10.303Z,3104
2022-12-28T09:44:13.176Z,2840
2022-12-28T09:45:16.862Z,3752
2022-12-28T09:46:20.602Z,3168
2022-12-28T09:47:24.611Z,2904
2022-12-28T09:48:27.619Z,3536
2022-12-28T09:49:31.788Z,3484
2022-12-28T09:50:34.588Z,3744
2022-12-28T09:51:37.489Z,3276
2022-12-28T09:52:44.899Z,3164
2022-12-28T09:53:52.923Z,3652
2022-12-28T09:54:56.012Z,4032
2022-12-28T09:55:58.781Z,3380
2022-12-28T09:57:02.153Z,3004
2022-12-28T09:58:05.328Z,2492
2022-12-28T09:59:08.411Z,2408
2022-12-28T10:00:10.844Z,2868
2022-12-28T10:01:13.975Z,2676
2022-12-28T10:02:18.071Z,2784
2022-12-28T10:03:21.737Z,2440
2022-12-28T10:04:25.579Z,2320
2022-12-28T10:05:29.683Z,2220
2022-12-28T10:06:32.765Z,1804
2022-12-28T10:07:35.475Z,2284
2022-12-28T10:08:38.866Z,2464
2022-12-28T10:09:42.233Z,2320
2022-12-28T10:10:48.808Z,2900
2022-12-28T10:11:52.681Z,2620
2022-12-28T10:12:55.780Z,2332
2022-12-28T10:13:58.789Z,2068
2022-12-28T10:15:01.612Z,2696
2022-12-28T10:16:04.595Z,3040
2022-12-28T10:17:08.073Z,2624
2022-12-28T10:18:11.809Z,2668
2022-12-28T10:19:14.799Z,2764
2022-12-28T10:20:17.583Z,3032
2022-12-28T10:21:25.532Z,2392
2022-12-28T10:22:36.028Z,2300
2022-12-28T10:23:50.392Z,2268
2022-12-28T10:25:35.641Z,2516
2022-12-28T10:26:38.998Z,2492
2022-12-28T10:27:41.981Z,2444
2022-12-28T10:28:48.723Z,2052
2022-12-28T10:29:52.012Z,2448
2022-12-28T10:30:55.397Z,2680
2022-12-28T10:31:59.162Z,2568
2022-12-28T10:33:03.656Z,2460
2022-12-28T10:34:15.032Z,2440
2022-12-28T10:35:20.769Z,2464
2022-12-28T10:36:29.826Z,2128
2022-12-28T10:37:35.193Z,1928
2022-12-28T10:38:38.228Z,1560
2022-12-28T10:39:41.658Z,1524
2022-12-28T10:40:45.445Z,1628
2022-12-28T10:41:48.578Z,1716
2022-12-28T10:42:51.779Z,1884
2022-12-28T10:44:21.773Z,1688
2022-12-28T10:45:44.313Z,1940
2022-12-28T10:46:47.807Z,2036
2022-12-28T10:47:51.508Z,1920
2022-12-28T10:48:54.700Z,2144
2022-12-28T10:51:40.966Z,1840
2022-12-28T10:52:44.465Z,1500
2022-12-28T10:53:47.476Z,1608
2022-12-28T10:55:07.385Z,1572
2022-12-28T10:56:11.661Z,1568
2022-12-28T10:57:18.866Z,1756
2022-12-28T10:58:30.524Z,1956
2022-12-28T10:59:37.226Z,2188
2022-12-28T11:00:40.897Z,2324
2022-12-28T11:01:56.353Z,2088
2022-12-28T11:03:01.289Z,1688
2022-12-28T11:04:04.647Z,1184
2022-12-28T11:05:09.620Z,1164
2022-12-28T11:06:12.981Z,1244
2022-12-28T11:07:17.092Z,1380
2022-12-28T11:08:20.110Z,1324
2022-12-28T11:09:23.484Z,1276
2022-12-28T11:10:27.005Z,1392
2022-12-28T11:11:30.040Z,1168
2022-12-28T11:12:32.783Z,1216
2022-12-28T11:13:35.301Z,1128
2022-12-28T11:14:38.302Z,1232
2022-12-28T11:15:41.574Z,1336
2022-12-28T11:16:44.665Z,1568
2022-12-28T11:17:48.538Z,1704
2022-12-28T11:18:51.493Z,1456
2022-12-28T11:19:53.936Z,1696
2022-12-28T11:20:57.378Z,1944
2022-12-28T11:21:59.887Z,2164
2022-12-28T11:23:03.669Z,2264
2022-12-28T11:24:07.052Z,2816
2022-12-28T11:25:09.762Z,2288
2022-12-28T11:26:12.770Z,2636
2022-12-28T11:27:15.823Z,2244
2022-12-28T11:28:19.273Z,1912
2022-12-28T11:29:25.208Z,1732
2022-12-28T11:30:28.019Z,1872
2022-12-28T11:31:31.603Z,1968
2022-12-28T11:32:35.397Z,1796
2022-12-28T11:33:39.208Z,1956
2022-12-28T11:34:42.882Z,1560
2022-12-28T11:35:46.281Z,1640
2022-12-28T11:36:50.396Z,1520
2022-12-28T11:37:53.109Z,1752
2022-12-28T11:38:56.351Z,1748
2022-12-28T11:39:59.913Z,1872
2022-12-28T11:41:03.320Z,2108
2022-12-28T11:43:44.497Z,1756
2022-12-28T11:44:47.770Z,1580
2022-12-28T11:45:51.290Z,1628
2022-12-28T11:46:55.411Z,1780
2022-12-28T11:47:58.788Z,1584
2022-12-28T11:49:01.935Z,1604
2022-12-28T11:50:05.322Z,1680
2022-12-28T11:51:08.705Z,1484
2022-12-28T11:52:11.869Z,1404
2022-12-28T11:53:14.869Z,1632
2022-12-28T11:54:18.326Z,1760
2022-12-28T11:55:20.241Z,2084
2022-12-28T11:56:23.245Z,1944
2022-12-28T11:57:25.981Z,1596
2022-12-28T11:58:28.789Z,1604
2022-12-28T11:59:31.879Z,1464
2022-12-28T12:00:35.390Z,1500
2022-12-28T12:01:38.282Z,1332
2022-12-28T12:02:41.953Z,1420
2022-12-28T12:03:44.761Z,1600
2022-12-28T12:04:48.404Z,1724
2022-12-28T12:05:52.117Z,1828
2022-12-28T12:06:54.715Z,2116
2022-12-28T12:07:58.116Z,1844
2022-12-28T12:09:01.452Z,1372
2022-12-28T12:10:05.251Z,1224
2022-12-28T12:11:08.368Z,1156
2022-12-28T12:12:15.912Z,1220
2022-12-28T12:13:21.332Z,1172
2022-12-28T12:14:24.718Z,1320
2022-12-28T12:15:28.145Z,1372
2022-12-28T12:16:31.898Z,1320
2022-12-28T12:17:39.700Z,1616
2022-12-28T12:18:46.076Z,1608
2022-12-28T12:19:49.833Z,1552
2022-12-28T12:20:52.889Z,1424
2022-12-28T12:21:56.605Z,1424
2022-12-28T12:23:00.039Z,1236
2022-12-28T12:24:03.162Z,1412
2022-12-28T12:25:06.574Z,1384
2022-12-28T12:26:09.715Z,1476
2022-12-28T12:27:13.585Z,1476
2022-12-28T12:28:17.012Z,1572
2022-12-28T12:29:20.061Z,1616
2022-12-28T12:30:23.097Z,2000
2022-12-28T12:31:26.710Z,1948
2022-12-28T12:32:30.417Z,2048
2022-12-28T12:33:33.691Z,2136
2022-12-28T12:34:37.187Z,2372
2022-12-28T12:35:40.903Z,2124
2022-12-28T12:36:44.015Z,2548
2022-12-28T12:37:47.422Z,2584
2022-12-28T12:38:50.547Z,3052
2022-12-28T12:39:53.933Z,2604
2022-12-28T12:40:57.072Z,2132
2022-12-28T12:42:00.596Z,1988
2022-12-28T12:43:03.728Z,1952
2022-12-28T12:44:06.387Z,1780
2022-12-28T12:45:10.017Z,1784
2022-12-28T12:46:12.532Z,1724
2022-12-28T12:47:16.428Z,1764
2022-12-28T12:48:19.729Z,1816
2022-12-28T12:49:22.810Z,1848
2022-12-28T12:50:26.245Z,2096
2022-12-28T12:51:29.302Z,1456
2022-12-28T12:52:32.706Z,1372
2022-12-28T12:53:48.609Z,1476
2022-12-28T12:54:52.056Z,1492
2022-12-28T12:55:55.542Z,1232
2022-12-28T12:56:58.682Z,1192
2022-12-28T12:58:02.396Z,1228
2022-12-28T12:59:05.574Z,1128
2022-12-28T13:00:08.958Z,1152
2022-12-28T13:01:13.051Z,1120
2022-12-28T13:02:16.641Z,1112
2022-12-28T13:03:21.216Z,1060
2022-12-28T13:04:24.920Z,1004
2022-12-28T13:05:27.936Z,868
2022-12-28T13:06:31.335Z,876
2022-12-28T13:07:35.680Z,856
2022-12-28T13:08:38.987Z,788
2022-12-28T13:09:42.747Z,764
2022-12-28T13:10:46.083Z,784
2022-12-28T13:11:48.916Z,844
2022-12-28T13:12:51.470Z,792
2022-12-28T13:13:55.276Z,768
2022-12-28T13:14:58.755Z,712
2022-12-28T13:16:02.462Z,740
2022-12-28T13:17:06.603Z,744
2022-12-28T13:18:43.350Z,896
2022-12-28T13:19:48.887Z,796
2022-12-28T13:20:51.949Z,712
2022-12-28T13:21:55.085Z,796
2022-12-28T13:22:58.500Z,764
2022-12-28T13:24:02.163Z,768
2022-12-28T13:25:05.516Z,720
2022-12-28T13:26:08.955Z,712
2022-12-28T13:27:12.742Z,556
2022-12-28T13:28:16.016Z,588
2022-12-28T13:29:19.385Z,588
2022-12-28T13:30:22.227Z,612
2022-12-28T13:31:25.337Z,580
2022-12-28T13:32:32.849Z,540
2022-12-28T13:33:41.232Z,512
2022-12-28T13:34:44.617Z,552
2022-12-28T13:35:47.392Z,584
2022-12-28T13:36:49.540Z,608
2022-12-28T13:37:52.266Z,588
2022-12-28T13:38:55.792Z,564
2022-12-28T13:39:59.766Z,620
2022-12-28T13:41:02.795Z,592
2022-12-28T13:42:06.001Z,620
2022-12-28T13:43:09.508Z,576
2022-12-28T13:44:12.973Z,624
2022-12-28T13:45:16.740Z,564
2022-12-28T13:46:19.669Z,564
2022-12-28T13:47:23.255Z,628
2022-12-28T13:48:26.627Z,616
2022-12-28T13:49:29.659Z,584
2022-12-28T13:50:33.323Z,512
2022-12-28T13:51:36.777Z,540
2022-12-28T13:52:39.921Z,568
2022-12-28T13:53:42.936Z,632
2022-12-28T13:54:45.719Z,632
2022-12-28T13:55:49.106Z,608
2022-12-28T13:56:52.490Z,540
2022-12-28T13:59:01.216Z,492
2022-12-28T14:00:04.752Z,520
2022-12-28T14:01:08.016Z,432
2022-12-28T14:02:11.606Z,424
2022-12-28T14:03:16.811Z,464
2022-12-28T14:05:57.072Z,496
2022-12-28T14:06:59.779Z,568
2022-12-28T14:08:02.801Z,664
2022-12-28T14:09:06.065Z,604
2022-12-28T14:10:10.121Z,592
2022-12-28T14:11:13.506Z,556
2022-12-28T14:12:16.085Z,532
2022-12-28T14:13:18.866Z,504
2022-12-28T14:14:22.397Z,484
2022-12-28T14:15:26.181Z,428
2022-12-28T14:16:30.011Z,440
2022-12-28T14:17:35.061Z,380
2022-12-28T14:18:38.098Z,428
2022-12-28T14:19:41.796Z,532
2022-12-28T14:20:45.183Z,420
2022-12-28T14:21:48.014Z,452
2022-12-28T14:22:51.025Z,496
2022-12-28T14:23:54.517Z,400
2022-12-28T14:24:57.214Z,416
2022-12-28T14:26:01.277Z,400
2022-12-28T14:27:04.525Z,404
2022-12-28T14:28:07.795Z,432
2022-12-28T14:29:10.809Z,352
2022-12-28T14:30:14.228Z,304
2022-12-28T14:31:17.397Z,296
2022-12-28T14:32:21.169Z,300
2022-12-28T14:33:25.234Z,296
2022-12-28T14:34:28.404Z,288
2022-12-28T14:35:31.873Z,292
2022-12-28T14:36:36.168Z,264
2022-12-28T14:37:38.939Z,256
2022-12-28T14:38:42.141Z,216
2022-12-28T14:39:45.253Z,244
2022-12-28T14:40:48.013Z,280
2022-12-28T14:41:51.087Z,228
2022-12-28T14:42:55.126Z,200
2022-12-28T14:43:57.785Z,200
2022-12-28T14:45:01.049Z,192
2022-12-28T14:46:07.866Z,200
2022-12-28T14:47:11.538Z,176
2022-12-28T14:48:18.236Z,164
2022-12-28T14:49:21.082Z,184
2022-12-28T14:50:24.841Z,164
2022-12-28T14:51:28.081Z,156
2022-12-28T14:52:30.897Z,140
2022-12-28T14:53:35.322Z,140
2022-12-28T14:54:39.140Z,124
2022-12-28T14:55:42.531Z,112
2022-12-28T14:56:46.618Z,112
2022-12-28T14:57:49.860Z,108
2022-12-28T14:58:53.471Z,108
2022-12-28T14:59:56.943Z,108
2022-12-28T15:00:59.866Z,96
2022-12-28T15:02:04.607Z,68
2022-12-28T15:03:10.044Z,68
2022-12-28T15:04:14.009Z,68
2022-12-28T15:05:19.004Z,56
2022-12-28T15:06:22.456Z,56
2022-12-28T15:07:24.795Z,56
2022-12-28T15:08:28.474Z,40
2022-12-28T15:09:31.929Z,40
2022-12-28T15:10:35.934Z,36
2022-12-28T15:11:38.782Z,32